EW1448 Weather Reports


Display with metric or nautical units.
time (UTC)temp
F
wind
direction
speed
MPH
gust
MPH
rain 1hr
in
rain 24hr
in
rain mn
in
humidity
%
barometer
mb
20210924214527 87 215 3.0 7.0 0.00 0.00 0.00 27 1017.9
20210924213040 88 180 6.0 10.0 0.00 0.00 0.00 24 1018.0
20210924200028 87 172 3.0 8.0 0.00 0.00 0.00 24 1019.0
20210924194544 87 207 3.0 7.0 0.00 0.00 0.00 24 1019.0
20210924193036 86 13 0.0 3.0 0.00 0.00 0.00 25 1019.2
20210924191535 86 60 2.0 5.0 0.00 0.00 0.00 25 1019.3
20210924190027 85 13 2.0 4.0 0.00 0.00 0.00 24 1019.6
20210924183025 84 66 1.0 6.0 0.00 0.00 0.00 27 1020.2
20210924181543 83 27 0.0 5.0 0.00 0.00 0.00 28 1020.3
20210924180036 82 354 2.0 4.0 0.00 0.00 0.00 28 1020.5
20210924174532 80 57 1.0 4.0 0.00 0.00 0.00 31 1020.8
20210924173023 78 91 1.0 2.0 0.00 0.00 0.00 34 1020.8
20210924171539 78 349 0.0 4.0 0.00 0.00 0.00 34 1020.8
20210924170030 77 13 2.0 6.0 0.00 0.00 0.00 35 1020.7
20210924164531 77 12 2.0 8.0 0.00 0.00 0.00 35 1020.7
20210924163040 76 325 2.0 6.0 0.00 0.00 0.00 38 1020.7
20210924161537 75 331 4.0 7.0 0.00 0.00 0.00 38 1020.8
20210924160031 73 308 3.0 4.0 0.00 0.00 0.00 40 1020.8
20210924154529 70 352 3.0 6.0 0.00 0.00 0.00 43 1020.6
20210924151536 71 7 3.0 5.0 0.00 0.00 0.00 43 1020.6
20210924150034 70 322 3.0 5.0 0.00 0.00 0.00 44 1020.5
20210924144532 68 28 3.0 6.0 0.00 0.00 0.00 46 1020.4
20210924143024 68 333 4.0 9.0 0.00 0.00 0.00 46 1020.4
20210924141544 67 315 0.0 2.0 0.00 0.00 0.00 47 1020.1
20210924140035 67 330 0.0 2.0 0.00 0.00 0.00 46 1020.1
20210924020029 81 262 5.0 9.0 0.00 0.00 0.00 27 1016.2
20210924014527 81 283 6.0 13.0 0.00 0.00 0.00 27 1016.0
20210924013037 82 238 4.0 11.0 0.00 0.00 0.00 26 1015.9
20210924011534 82 252 2.0 11.0 0.00 0.00 0.00 26 1015.8
20210924010029 83 217 1.0 7.0 0.00 0.00 0.00 26 1015.8
20210924004527 84 216 4.0 11.0 0.00 0.00 0.00 25 1015.5